createdAt,value
2023-02-01T00:01:26.950Z,2.10
2023-02-01T00:03:54.324Z,3.05
2023-02-01T00:06:21.313Z,3.38
2023-02-01T00:08:49.731Z,2.35
2023-02-01T00:11:17.804Z,2.85
2023-02-01T00:13:45.774Z,3.03
2023-02-01T00:16:19.219Z,3.00
2023-02-01T00:18:49.531Z,2.78
2023-02-01T00:21:20.253Z,3.10
2023-02-01T00:23:48.047Z,3.00
2023-02-01T00:26:22.795Z,1.88
2023-02-01T00:28:49.655Z,2.55
2023-02-01T00:31:17.951Z,2.72
2023-02-01T00:33:54.205Z,2.42
2023-02-01T00:36:21.923Z,1.95
2023-02-01T00:38:51.875Z,2.35
2023-02-01T00:41:21.386Z,2.83
2023-02-01T00:43:52.471Z,3.20
2023-02-01T00:46:20.937Z,2.13
2023-02-01T00:48:48.087Z,3.45
2023-02-01T00:51:17.374Z,3.80
2023-02-01T00:53:44.513Z,3.78
2023-02-01T00:56:12.161Z,3.65
2023-02-01T00:58:39.434Z,4.05
2023-02-01T01:01:20.814Z,4.10
2023-02-01T01:03:57.358Z,2.70
2023-02-01T01:06:29.876Z,2.92
2023-02-01T01:08:58.345Z,3.05
2023-02-01T01:11:29.066Z,2.25
2023-02-01T01:13:57.732Z,2.42
2023-02-01T01:16:27.023Z,2.30
2023-02-01T01:18:54.996Z,2.17
2023-02-01T01:21:21.949Z,2.80
2023-02-01T01:23:48.902Z,2.50
2023-02-01T01:26:19.289Z,2.00
2023-02-01T01:28:46.833Z,1.73
2023-02-01T01:31:15.959Z,1.33
2023-02-01T01:33:44.947Z,1.92
2023-02-01T01:36:13.273Z,1.85
2023-02-01T01:38:41.456Z,1.73
2023-02-01T01:41:12.903Z,1.95
2023-02-01T01:44:01.747Z,1.67
2023-02-01T01:46:30.774Z,2.03
2023-02-01T01:49:10.672Z,1.60
2023-02-01T01:51:43.584Z,1.20
2023-02-01T01:54:19.536Z,1.20
2023-02-01T01:56:51.485Z,1.52
2023-02-01T01:59:18.772Z,1.30
2023-02-01T02:01:47.021Z,1.55
2023-02-01T02:04:14.330Z,1.63
2023-02-01T02:07:05.218Z,1.80
2023-02-01T02:09:32.552Z,2.00
2023-02-01T02:11:59.533Z,1.80
2023-02-01T02:14:27.770Z,1.65
2023-02-01T02:17:08.320Z,1.95
2023-02-01T02:19:54.295Z,1.80
2023-02-01T02:22:55.311Z,1.50
2023-02-01T02:25:43.599Z,1.70
2023-02-01T02:28:50.244Z,1.90
2023-02-01T02:31:26.390Z,1.75
2023-02-01T02:33:53.285Z,1.98
2023-02-01T02:36:36.892Z,1.38
2023-02-01T02:39:09.937Z,1.92
2023-02-01T02:42:21.883Z,1.92
2023-02-01T02:45:22.537Z,2.03
2023-02-01T02:48:08.593Z,2.50
2023-02-01T02:51:04.367Z,3.03
2023-02-01T02:54:01.073Z,2.42
2023-02-01T02:56:47.665Z,2.70
2023-02-01T02:59:36.063Z,2.42
2023-02-01T03:02:22.208Z,2.72
2023-02-01T03:04:57.332Z,2.90
2023-02-01T03:07:50.622Z,2.65
2023-02-01T03:10:42.602Z,2.55
2023-02-01T03:13:47.847Z,2.30
2023-02-01T03:16:38.330Z,2.85
2023-02-01T03:19:12.103Z,2.50
2023-02-01T03:21:51.952Z,1.98
2023-02-01T03:24:34.178Z,2.42
2023-02-01T03:27:17.313Z,2.60
2023-02-01T03:29:55.388Z,2.92
2023-02-01T03:32:22.717Z,2.28
2023-02-01T03:34:50.153Z,2.40
2023-02-01T03:37:25.289Z,2.30
2023-02-01T03:40:16.790Z,2.95
2023-02-01T03:42:49.900Z,3.72
2023-02-01T03:45:35.541Z,3.10
2023-02-01T03:48:04.815Z,2.85
2023-02-01T03:50:34.725Z,3.30
2023-02-01T03:53:11.456Z,3.40
2023-02-01T03:55:39.515Z,3.83
2023-02-01T03:58:30.756Z,3.42
2023-02-01T04:00:59.973Z,3.35
2023-02-01T04:03:29.140Z,3.50
2023-02-01T04:05:57.178Z,3.90
2023-02-01T04:08:27.639Z,3.42
2023-02-01T04:10:54.356Z,3.00
2023-02-01T04:13:21.120Z,3.88
2023-02-01T04:15:50.845Z,3.80
2023-02-01T04:18:17.901Z,4.10
2023-02-01T04:20:45.206Z,3.45
2023-02-01T04:23:11.966Z,1.63
2023-02-01T04:25:38.764Z,2.97
2023-02-01T04:28:06.124Z,3.60
2023-02-01T04:30:33.677Z,3.85
2023-02-01T04:33:00.511Z,2.45
2023-02-01T04:35:27.281Z,2.60
2023-02-01T04:37:54.030Z,4.15
2023-02-01T04:40:21.487Z,4.55
2023-02-01T04:42:48.500Z,5.10
2023-02-01T04:45:15.399Z,5.07
2023-02-01T04:47:42.362Z,4.30
2023-02-01T04:50:11.585Z,3.40
2023-02-01T04:52:38.633Z,2.55
2023-02-01T04:55:05.980Z,3.58
2023-02-01T04:57:32.858Z,3.58
2023-02-01T04:59:59.609Z,2.20
2023-02-01T05:02:26.398Z,4.47
2023-02-01T05:04:53.176Z,4.47
2023-02-01T05:07:20.010Z,4.43
2023-02-01T05:09:46.847Z,4.22
2023-02-01T05:12:32.296Z,4.53
2023-02-01T05:14:59.060Z,4.63
2023-02-01T05:17:25.917Z,4.32
2023-02-01T05:19:52.752Z,4.40
2023-02-01T05:22:19.581Z,4.93
2023-02-01T05:24:49.075Z,4.57
2023-02-01T05:27:15.819Z,4.40
2023-02-01T05:29:43.059Z,3.30
2023-02-01T05:32:21.592Z,4.35
2023-02-01T05:34:49.615Z,2.38
2023-02-01T05:37:16.407Z,3.20
2023-02-01T05:39:43.295Z,3.75
2023-02-01T05:42:10.512Z,3.40
2023-02-01T05:44:37.383Z,3.58
2023-02-01T05:47:04.310Z,4.00
2023-02-01T05:49:31.170Z,3.47
2023-02-01T05:52:00.065Z,4.10
2023-02-01T05:54:27.374Z,3.35
2023-02-01T05:56:54.173Z,3.60
2023-02-01T05:59:21.001Z,4.40
2023-02-01T06:01:47.838Z,3.25
2023-02-01T06:04:14.580Z,2.42
2023-02-01T06:06:41.648Z,3.50
2023-02-01T06:09:08.493Z,4.07
2023-02-01T06:11:35.240Z,3.78
2023-02-01T06:14:02.102Z,4.10
2023-02-01T06:16:28.973Z,3.50
2023-02-01T06:18:55.861Z,3.28
2023-02-01T06:21:25.567Z,2.95
2023-02-01T06:23:54.400Z,3.10
2023-02-01T06:26:21.428Z,3.67
2023-02-01T06:28:48.625Z,3.08
2023-02-01T06:31:15.506Z,2.55
2023-02-01T06:33:43.043Z,2.60
2023-02-01T06:36:20.707Z,3.13
2023-02-01T06:39:47.056Z,2.45
2023-02-01T06:42:34.604Z,4.60
2023-02-01T06:45:01.389Z,2.17
2023-02-01T06:47:29.188Z,2.53
2023-02-01T06:49:56.023Z,1.63
2023-02-01T06:52:22.799Z,2.50
2023-02-01T06:54:49.652Z,3.50
2023-02-01T06:57:16.391Z,3.47
2023-02-01T06:59:43.176Z,3.10
2023-02-01T07:02:13.318Z,1.80
2023-02-01T07:04:40.257Z,3.33
2023-02-01T07:07:07.088Z,3.20
2023-02-01T07:09:33.911Z,3.20
2023-02-01T07:12:00.710Z,2.20
2023-02-01T07:14:27.671Z,3.33
2023-02-01T07:16:54.495Z,4.22
2023-02-01T07:19:21.292Z,4.90
2023-02-01T07:21:48.052Z,2.40
2023-02-01T07:24:15.840Z,2.80
2023-02-01T07:26:42.803Z,2.85
2023-02-01T07:29:09.760Z,1.90
2023-02-01T07:31:36.491Z,2.05
2023-02-01T07:34:03.959Z,2.00
2023-02-01T07:36:30.887Z,2.28
2023-02-01T07:38:58.748Z,3.67
2023-02-01T07:41:25.704Z,2.50
2023-02-01T07:43:56.257Z,2.42
2023-02-01T07:46:23.066Z,2.03
2023-02-01T07:48:49.859Z,3.38
2023-02-01T07:51:17.877Z,3.13
2023-02-01T07:53:45.857Z,3.20
2023-02-01T07:56:18.496Z,2.60
2023-02-01T07:58:52.529Z,2.33
2023-02-01T08:04:00.715Z,1.50
2023-02-01T08:06:29.439Z,2.70
2023-02-01T08:08:56.294Z,2.50
2023-02-01T08:11:24.336Z,2.35
2023-02-01T08:13:51.990Z,2.25
2023-02-01T08:16:20.351Z,3.47
2023-02-01T08:18:47.404Z,2.65
2023-02-01T08:21:17.729Z,1.90
2023-02-01T08:23:45.510Z,3.08
2023-02-01T08:26:15.827Z,3.03
2023-02-01T08:28:45.507Z,2.88
2023-02-01T08:31:17.906Z,2.55
2023-02-01T08:33:49.125Z,2.92
2023-02-01T08:36:15.966Z,2.80
2023-02-01T08:38:42.785Z,6.65
2023-02-01T08:41:12.180Z,3.40
2023-02-01T08:43:39.235Z,2.15
2023-02-01T08:46:07.050Z,2.30
2023-02-01T08:48:35.347Z,2.22
2023-02-01T08:51:10.922Z,2.88
2023-02-01T08:53:38.419Z,2.42
2023-02-01T08:56:05.716Z,3.63
2023-02-01T08:58:32.538Z,2.35
2023-02-01T09:01:10.610Z,1.83
2023-02-01T09:03:37.521Z,4.00
2023-02-01T09:06:13.030Z,2.20
2023-02-01T09:08:41.478Z,4.57
2023-02-01T09:11:13.212Z,2.53
2023-02-01T09:13:40.057Z,2.20
2023-02-01T09:16:07.432Z,2.25
2023-02-01T09:18:34.553Z,1.92
2023-02-01T09:21:06.518Z,2.22
2023-02-01T09:23:33.807Z,4.15
2023-02-01T09:26:06.060Z,2.53
2023-02-01T09:28:33.020Z,3.25
2023-02-01T09:31:01.400Z,3.15
2023-02-01T09:33:29.954Z,4.03
2023-02-01T09:36:02.322Z,3.90
2023-02-01T09:38:30.093Z,3.78
2023-02-01T09:40:57.524Z,3.20
2023-02-01T09:44:13.849Z,3.35
2023-02-01T09:46:40.683Z,2.90
2023-02-01T09:49:15.838Z,3.40
2023-02-01T09:51:50.501Z,1.55
2023-02-01T09:54:20.518Z,2.90
2023-02-01T09:57:09.528Z,2.25
2023-02-01T09:59:45.677Z,3.63
2023-02-01T10:02:26.846Z,5.10
2023-02-01T10:05:00.567Z,2.95
2023-02-01T10:07:41.131Z,2.30
2023-02-01T10:10:40.798Z,3.75
2023-02-01T10:13:27.502Z,2.85
2023-02-01T10:16:35.369Z,3.40
2023-02-01T10:19:40.329Z,3.45
2023-02-01T10:22:10.752Z,5.10
2023-02-01T10:24:44.218Z,4.65
2023-02-01T10:27:15.376Z,3.65
2023-02-01T10:29:46.985Z,3.55
2023-02-01T10:32:20.921Z,3.00
2023-02-01T10:37:28.322Z,2.40
2023-02-01T10:39:57.627Z,2.28
2023-02-01T10:42:29.701Z,2.40
2023-02-01T10:45:03.254Z,2.05
2023-02-01T10:47:30.690Z,3.40
2023-02-01T10:50:17.665Z,2.25
2023-02-01T10:52:55.337Z,2.17
2023-02-01T10:55:41.046Z,2.28
2023-02-01T10:58:30.075Z,2.70
2023-02-01T11:00:59.014Z,3.75
2023-02-01T11:03:34.195Z,2.00
2023-02-01T11:06:03.986Z,2.78
2023-02-01T11:08:31.094Z,2.47
2023-02-01T11:11:04.106Z,1.73
2023-02-01T11:13:39.224Z,2.45
2023-02-01T11:16:07.229Z,2.22
2023-02-01T11:18:38.765Z,5.78
2023-02-01T11:21:08.824Z,4.75
2023-02-01T11:23:43.603Z,5.10
2023-02-01T11:26:20.862Z,4.07
2023-02-01T11:28:54.356Z,3.47
2023-02-01T11:31:21.992Z,1.90
2023-02-01T11:33:55.327Z,2.90
2023-02-01T11:36:31.281Z,3.05
2023-02-01T11:39:13.356Z,4.05
2023-02-01T11:41:58.728Z,2.90
2023-02-01T11:44:40.404Z,2.25
2023-02-01T11:47:25.627Z,3.03
2023-02-01T11:49:58.150Z,2.83
2023-02-01T11:52:49.602Z,3.85
2023-02-01T11:55:50.482Z,3.03
2023-02-01T11:58:43.241Z,1.75
2023-02-01T12:01:35.081Z,3.97
2023-02-01T12:04:36.450Z,3.17
2023-02-01T12:07:31.622Z,2.80
2023-02-01T12:10:04.413Z,4.55
2023-02-01T12:12:49.709Z,2.13
2023-02-01T12:15:30.323Z,4.15
2023-02-01T12:18:04.282Z,5.88
2023-02-01T12:20:39.961Z,4.60
2023-02-01T12:23:20.399Z,2.92
2023-02-01T12:26:10.092Z,3.33
2023-02-01T12:29:03.184Z,2.03
2023-02-01T12:31:43.056Z,3.40
2023-02-01T12:34:31.426Z,2.80
2023-02-01T12:37:14.704Z,2.72
2023-02-01T12:39:51.026Z,2.97
2023-02-01T12:42:24.189Z,2.58
2023-02-01T12:45:26.646Z,4.03
2023-02-01T12:49:07.269Z,2.65
2023-02-01T12:56:03.857Z,2.83
2023-02-01T12:59:34.064Z,3.08
2023-02-01T13:02:48.650Z,4.70
2023-02-01T13:06:10.848Z,2.85
2023-02-01T13:09:15.618Z,2.88
2023-02-01T13:12:24.458Z,4.40
2023-02-01T13:15:01.504Z,3.22
2023-02-01T13:17:33.030Z,3.85
2023-02-01T13:20:26.603Z,4.97
2023-02-01T13:23:18.920Z,6.68
2023-02-01T13:25:52.222Z,14.13
2023-02-01T13:28:36.602Z,8.88
2023-02-01T13:31:25.109Z,5.93
2023-02-01T13:34:17.949Z,3.67
2023-02-01T13:37:04.575Z,3.80
2023-02-01T13:39:56.726Z,3.25
2023-02-01T13:42:38.044Z,4.10
2023-02-01T13:45:15.020Z,3.05
2023-02-01T13:47:45.197Z,2.58
2023-02-01T13:50:36.314Z,1.98
2023-02-01T13:53:14.547Z,2.10
2023-02-01T13:55:47.936Z,2.13
2023-02-01T13:58:41.501Z,2.15
2023-02-01T14:01:24.470Z,2.22
2023-02-01T14:04:00.810Z,1.67
2023-02-01T14:06:28.631Z,2.08
2023-02-01T14:09:17.906Z,2.22
2023-02-01T14:11:47.843Z,3.22
2023-02-01T14:14:16.685Z,1.40
2023-02-01T14:16:45.216Z,3.83
2023-02-01T14:19:29.437Z,3.30
2023-02-01T14:24:35.752Z,2.88
2023-02-01T14:27:16.795Z,2.50
2023-02-01T14:29:56.177Z,3.13
2023-02-01T14:32:26.698Z,2.80
2023-02-01T14:34:58.587Z,3.25
2023-02-01T14:37:30.575Z,4.20
2023-02-01T14:40:04.202Z,2.50
2023-02-01T14:45:20.417Z,3.03
2023-02-01T14:48:06.521Z,3.15
2023-02-01T14:50:33.875Z,4.25
2023-02-01T14:53:09.638Z,5.40
2023-02-01T14:55:40.532Z,4.78
2023-02-01T14:58:18.204Z,4.18
2023-02-01T15:01:30.543Z,4.88
2023-02-01T15:04:01.652Z,4.38
2023-02-01T15:06:49.841Z,4.78
2023-02-01T15:09:28.130Z,2.30
2023-02-01T15:11:59.722Z,3.42
2023-02-01T15:14:50.393Z,3.35
2023-02-01T15:17:35.719Z,2.58
2023-02-01T15:20:24.831Z,2.28
2023-02-01T15:23:16.453Z,2.95
2023-02-01T15:25:47.364Z,2.45
2023-02-01T15:28:16.510Z,2.55
2023-02-01T15:30:59.853Z,1.77
2023-02-01T15:33:28.621Z,1.85
2023-02-01T15:36:13.080Z,1.65
2023-02-01T15:38:45.065Z,2.13
2023-02-01T15:41:12.351Z,3.35
2023-02-01T15:43:54.653Z,4.13
2023-02-01T15:46:39.855Z,3.85
2023-02-01T15:49:32.745Z,4.28
2023-02-01T15:52:02.363Z,2.40
2023-02-01T15:54:43.753Z,4.22
2023-02-01T15:57:10.965Z,3.55
2023-02-01T15:59:45.109Z,3.05
2023-02-01T16:02:36.807Z,2.20
2023-02-01T16:05:05.541Z,1.92
2023-02-01T16:07:35.200Z,2.17
2023-02-01T16:10:08.135Z,4.63
2023-02-01T16:12:48.747Z,2.77
2023-02-01T16:15:15.830Z,1.92
2023-02-01T16:17:43.765Z,3.03
2023-02-01T16:20:11.424Z,2.20
2023-02-01T16:22:38.383Z,1.90
2023-02-01T16:25:06.136Z,2.25
2023-02-01T16:27:33.091Z,1.67
2023-02-01T16:29:59.987Z,1.92
2023-02-01T16:32:27.764Z,3.20
2023-02-01T16:34:55.250Z,3.00
2023-02-01T16:37:24.934Z,4.72
2023-02-01T16:39:52.398Z,3.92
2023-02-01T16:42:19.490Z,3.85
2023-02-01T16:44:46.453Z,2.13
2023-02-01T16:47:24.121Z,2.22
2023-02-01T16:49:51.816Z,3.60
2023-02-01T16:52:23.781Z,2.97
2023-02-01T16:54:51.394Z,3.40
2023-02-01T16:57:20.970Z,2.90
2023-02-01T16:59:48.123Z,3.33
2023-02-01T17:02:21.112Z,6.35
2023-02-01T17:04:49.845Z,3.40
2023-02-01T17:07:19.754Z,3.65
2023-02-01T17:09:47.581Z,4.82
2023-02-01T17:12:27.176Z,3.67
2023-02-01T17:14:54.549Z,4.10
2023-02-01T17:17:32.712Z,5.13
2023-02-01T17:20:07.262Z,5.00
2023-02-01T17:22:34.454Z,3.15
2023-02-01T17:25:01.408Z,3.42
2023-02-01T17:27:30.449Z,3.28
2023-02-01T17:29:57.408Z,6.70
2023-02-01T17:32:26.490Z,4.85
2023-02-01T17:34:53.759Z,2.55
2023-02-01T17:37:30.021Z,2.65
2023-02-01T17:39:57.500Z,2.90
2023-02-01T17:42:29.413Z,1.75
2023-02-01T17:45:00.842Z,2.67
2023-02-01T17:47:27.930Z,2.05
2023-02-01T17:49:57.800Z,3.47
2023-02-01T17:52:26.404Z,4.85
2023-02-01T17:54:54.525Z,4.40
2023-02-01T17:57:21.772Z,2.22
2023-02-01T17:59:49.063Z,4.18
2023-02-01T18:02:24.744Z,2.72
2023-02-01T18:04:52.189Z,2.60
2023-02-01T18:07:19.231Z,2.97
2023-02-01T18:09:46.016Z,2.58
2023-02-01T18:12:22.059Z,2.42
2023-02-01T18:14:49.132Z,2.20
2023-02-01T18:17:15.899Z,2.80
2023-02-01T18:19:42.697Z,2.58
2023-02-01T18:22:23.150Z,1.90
2023-02-01T18:24:50.060Z,1.83
2023-02-01T18:27:17.007Z,2.33
2023-02-01T18:29:43.834Z,3.55
2023-02-01T18:32:11.063Z,2.35
2023-02-01T18:34:38.124Z,2.50
2023-02-01T18:37:04.921Z,2.25
2023-02-01T18:39:31.981Z,1.90
2023-02-01T18:41:59.183Z,3.13
2023-02-01T18:44:25.967Z,2.20
2023-02-01T18:46:52.968Z,1.27
2023-02-01T18:49:20.537Z,1.92
2023-02-01T18:51:47.389Z,4.07
2023-02-01T18:54:14.385Z,3.42
2023-02-01T18:56:43.003Z,1.83
2023-02-01T18:59:11.884Z,1.52
2023-02-01T19:01:38.898Z,2.67
2023-02-01T19:04:14.703Z,3.00
2023-02-01T19:06:52.723Z,3.78
2023-02-01T19:09:19.636Z,3.25
2023-02-01T19:11:46.408Z,3.33
2023-02-01T19:14:13.319Z,4.03
2023-02-01T19:16:40.321Z,3.97
2023-02-01T19:19:07.096Z,4.60
2023-02-01T19:21:33.902Z,5.63
2023-02-01T19:24:01.117Z,3.35
2023-02-01T19:26:28.036Z,2.95
2023-02-01T19:28:55.023Z,2.97
2023-02-01T19:31:22.375Z,4.20
2023-02-01T19:33:49.350Z,4.45
2023-02-01T19:36:16.231Z,5.70
2023-02-01T19:38:43.127Z,4.25
2023-02-01T19:41:10.173Z,3.35
2023-02-01T19:43:39.869Z,4.15
2023-02-01T19:46:07.194Z,3.30
2023-02-01T19:48:34.456Z,5.15
2023-02-01T19:51:02.252Z,2.60
2023-02-01T19:53:29.907Z,3.35
2023-02-01T19:55:58.505Z,3.00
2023-02-01T19:58:26.376Z,3.80
2023-02-01T20:00:56.909Z,2.75
2023-02-01T20:03:24.108Z,7.30
2023-02-01T20:05:52.669Z,4.90
2023-02-01T20:08:20.431Z,5.22
2023-02-01T20:10:48.932Z,2.58
2023-02-01T20:13:16.265Z,2.28
2023-02-01T20:15:43.100Z,5.50
2023-02-01T20:18:10.508Z,1.52
2023-02-01T20:20:37.492Z,3.28
2023-02-01T20:23:04.367Z,2.60
2023-02-01T20:25:32.132Z,1.98
2023-02-01T20:27:59.219Z,3.17
2023-02-01T20:30:26.240Z,2.70
2023-02-01T20:32:53.092Z,2.70
2023-02-01T20:35:20.346Z,3.00
2023-02-01T20:37:49.035Z,2.38
2023-02-01T20:40:16.051Z,2.40
2023-02-01T20:42:42.888Z,2.38
2023-02-01T20:45:10.142Z,2.30
2023-02-01T20:47:36.953Z,2.08
2023-02-01T20:50:04.031Z,2.55
2023-02-01T20:52:30.790Z,3.05
2023-02-01T20:54:57.546Z,2.60
2023-02-01T20:57:24.695Z,2.00
2023-02-01T20:59:51.697Z,2.20
2023-02-01T21:02:18.552Z,2.65
2023-02-01T21:04:45.694Z,2.50
2023-02-01T21:07:12.464Z,2.30
2023-02-01T21:09:41.520Z,1.35
2023-02-01T21:12:09.660Z,1.20
2023-02-01T21:14:36.755Z,1.75
2023-02-01T21:17:03.550Z,1.75
2023-02-01T21:19:42.860Z,1.73
2023-02-01T21:22:14.672Z,1.40
2023-02-01T21:24:42.359Z,1.75
2023-02-01T21:27:10.072Z,1.50
2023-02-01T21:29:37.478Z,1.70
2023-02-01T21:32:06.767Z,1.98
2023-02-01T21:34:34.922Z,2.00
2023-02-01T21:37:02.698Z,1.70
2023-02-01T21:39:29.766Z,2.03
2023-02-01T21:42:14.832Z,2.20
2023-02-01T21:44:42.030Z,1.55
2023-02-01T21:47:10.854Z,2.30
2023-02-01T21:49:37.752Z,2.13
2023-02-01T21:52:05.176Z,1.67
2023-02-01T21:54:32.023Z,1.80
2023-02-01T21:56:58.791Z,1.70
2023-02-01T21:59:25.533Z,1.60
2023-02-01T22:01:52.416Z,1.70
2023-02-01T22:04:19.240Z,1.50
2023-02-01T22:06:46.335Z,1.80
2023-02-01T22:09:24.799Z,1.73
2023-02-01T22:11:53.538Z,1.48
2023-02-01T22:14:21.757Z,1.35
2023-02-01T22:16:48.952Z,1.50
2023-02-01T22:19:16.169Z,1.20
2023-02-01T22:21:45.787Z,1.00
2023-02-01T22:24:16.129Z,1.15
2023-02-01T22:26:43.697Z,1.35
2023-02-01T22:29:13.239Z,1.30
2023-02-01T22:31:41.065Z,1.33
2023-02-01T22:34:10.344Z,1.23
2023-02-01T22:36:37.399Z,1.10
2023-02-01T22:39:04.769Z,0.90
2023-02-01T22:41:31.639Z,1.20
2023-02-01T22:43:58.517Z,1.10
2023-02-01T22:46:28.379Z,1.35
2023-02-01T22:48:55.257Z,1.20
2023-02-01T22:51:24.687Z,1.52
2023-02-01T22:53:58.558Z,1.30
2023-02-01T22:58:55.748Z,1.10
2023-02-01T23:01:22.612Z,1.00
2023-02-01T23:03:49.621Z,0.93
2023-02-01T23:06:18.660Z,1.77
2023-02-01T23:08:46.603Z,1.10
2023-02-01T23:11:13.825Z,1.30
2023-02-01T23:13:40.718Z,1.30
2023-02-01T23:16:13.411Z,1.50
2023-02-01T23:18:41.619Z,1.30
2023-02-01T23:21:11.484Z,1.35
2023-02-01T23:23:38.851Z,1.15
2023-02-01T23:26:06.381Z,7.47
2023-02-01T23:28:33.193Z,3.97
2023-02-01T23:31:00.057Z,2.30
2023-02-01T23:33:27.826Z,1.50
2023-02-01T23:35:56.888Z,1.02
2023-02-01T23:38:23.832Z,1.08
2023-02-01T23:40:52.103Z,1.02
2023-02-01T23:43:37.743Z,1.27
2023-02-01T23:46:04.705Z,1.30
2023-02-01T23:48:31.514Z,1.20
2023-02-01T23:50:58.344Z,1.13
2023-02-01T23:53:25.266Z,1.00
2023-02-01T23:55:53.856Z,1.40
2023-02-01T23:58:22.054Z,1.10
